createdAt,value
2019-03-29T00:00:45.619Z,3.76
2019-03-29T00:01:45.612Z,3.63
2019-03-29T00:02:45.637Z,3.66
2019-03-29T00:03:45.585Z,3.68
2019-03-29T00:04:45.584Z,3.76
2019-03-29T00:05:45.569Z,3.67
2019-03-29T00:06:45.558Z,3.73
2019-03-29T00:07:45.557Z,3.77
2019-03-29T00:08:45.536Z,3.81
2019-03-29T00:09:45.567Z,3.76
2019-03-29T00:10:46.334Z,3.78
2019-03-29T00:11:45.506Z,3.76
2019-03-29T00:12:45.492Z,3.71
2019-03-29T00:13:45.479Z,3.73
2019-03-29T00:14:45.464Z,3.92
2019-03-29T00:15:57.955Z,4.00
2019-03-29T00:16:45.454Z,3.92
2019-03-29T00:17:45.437Z,3.94
2019-03-29T00:18:45.425Z,3.95
2019-03-29T00:19:45.418Z,3.92
2019-03-29T00:20:45.403Z,3.94
2019-03-29T00:21:45.400Z,3.99
2019-03-29T00:22:45.382Z,4.00
2019-03-29T00:23:45.378Z,3.89
2019-03-29T00:24:45.371Z,4.02
2019-03-29T00:25:45.347Z,3.92
2019-03-29T00:26:45.477Z,3.88
2019-03-29T00:27:45.348Z,3.88
2019-03-29T00:28:45.318Z,3.95
2019-03-29T00:29:45.311Z,3.88
2019-03-29T00:30:45.291Z,3.89
2019-03-29T00:31:45.285Z,4.00
2019-03-29T00:32:45.308Z,3.85
2019-03-29T00:33:45.259Z,3.77
2019-03-29T00:34:45.251Z,3.81
2019-03-29T00:35:45.252Z,3.84
2019-03-29T00:36:45.235Z,3.89
2019-03-29T00:37:53.444Z,3.82
2019-03-29T00:38:46.218Z,3.82
2019-03-29T00:39:45.204Z,3.82
2019-03-29T00:40:45.198Z,3.84
2019-03-29T00:41:45.184Z,3.78
2019-03-29T00:42:45.174Z,3.92
2019-03-29T00:43:45.162Z,3.84
2019-03-29T00:44:45.149Z,3.96
2019-03-29T00:45:45.766Z,4.04
2019-03-29T00:46:57.940Z,4.03
2019-03-29T00:47:45.116Z,4.10
2019-03-29T00:48:45.148Z,4.00
2019-03-29T00:49:45.098Z,4.06
2019-03-29T00:50:45.090Z,4.04
2019-03-29T00:51:45.075Z,4.04
2019-03-29T00:52:45.065Z,3.99
2019-03-29T00:53:45.051Z,4.02
2019-03-29T00:54:45.072Z,4.06
2019-03-29T00:55:45.026Z,4.12
2019-03-29T00:56:45.016Z,4.16
2019-03-29T00:57:45.006Z,4.14
2019-03-29T00:58:45.000Z,4.12
2019-03-29T00:59:44.991Z,4.12
2019-03-29T01:00:44.988Z,4.04
2019-03-29T01:01:44.961Z,3.96
2019-03-29T01:02:45.168Z,4.02
2019-03-29T01:03:44.942Z,4.02
2019-03-29T01:04:44.935Z,3.95
2019-03-29T01:05:44.954Z,4.00
2019-03-29T01:06:44.917Z,3.88
2019-03-29T01:07:44.903Z,4.00
2019-03-29T01:08:44.907Z,3.95
2019-03-29T01:09:44.887Z,3.94
2019-03-29T01:10:44.895Z,3.81
2019-03-29T01:11:44.870Z,3.91
2019-03-29T01:12:44.857Z,3.76
2019-03-29T01:13:44.855Z,3.74
2019-03-29T01:14:44.844Z,3.78
2019-03-29T01:15:44.817Z,3.70
2019-03-29T01:16:44.849Z,3.61
2019-03-29T01:17:58.259Z,3.64
2019-03-29T01:18:44.787Z,3.55
2019-03-29T01:19:44.772Z,3.63
2019-03-29T01:20:44.761Z,3.55
2019-03-29T01:21:44.759Z,3.63
2019-03-29T01:22:44.752Z,3.53
2019-03-29T01:23:44.732Z,3.58
2019-03-29T01:24:44.723Z,3.52
2019-03-29T01:25:44.713Z,3.46
2019-03-29T01:26:44.701Z,3.43
2019-03-29T01:27:45.397Z,3.55
2019-03-29T01:28:44.684Z,3.41
2019-03-29T01:29:44.674Z,3.43
2019-03-29T01:30:44.657Z,3.46
2019-03-29T01:31:44.644Z,3.36
2019-03-29T01:32:44.635Z,3.30
2019-03-29T01:33:44.641Z,3.29
2019-03-29T01:34:44.621Z,3.19
2019-03-29T01:35:44.606Z,3.21
2019-03-29T01:36:44.591Z,3.09
2019-03-29T01:37:45.980Z,3.05
2019-03-29T01:38:44.573Z,3.03
2019-03-29T01:39:44.576Z,2.90
2019-03-29T01:40:44.558Z,3.01
2019-03-29T01:41:44.539Z,2.95
2019-03-29T01:42:45.080Z,2.79
2019-03-29T01:43:44.535Z,2.79
2019-03-29T01:44:44.513Z,2.77
2019-03-29T01:45:45.319Z,2.72
2019-03-29T01:46:44.491Z,2.73
2019-03-29T01:47:44.476Z,2.73
2019-03-29T01:48:58.508Z,2.65
2019-03-29T01:49:44.456Z,2.72
2019-03-29T01:50:44.442Z,2.62
2019-03-29T01:51:44.431Z,2.58
2019-03-29T01:52:45.235Z,2.58
2019-03-29T01:53:44.413Z,2.55
2019-03-29T01:54:44.442Z,2.61
2019-03-29T01:55:44.395Z,2.52
2019-03-29T01:56:44.390Z,2.59
2019-03-29T01:57:44.362Z,2.58
2019-03-29T01:58:44.354Z,2.51
2019-03-29T01:59:44.347Z,2.55
2019-03-29T02:00:44.377Z,2.57
2019-03-29T02:01:44.325Z,2.47
2019-03-29T02:02:44.314Z,2.43
2019-03-29T02:03:44.301Z,2.39
2019-03-29T02:04:44.289Z,2.40
2019-03-29T02:05:44.279Z,2.34
2019-03-29T02:06:45.092Z,2.26
2019-03-29T02:07:44.259Z,2.33
2019-03-29T02:08:44.243Z,2.32
2019-03-29T02:09:44.230Z,2.23
2019-03-29T02:10:44.223Z,2.25
2019-03-29T02:11:44.223Z,2.22
2019-03-29T02:12:44.221Z,2.23
2019-03-29T02:13:44.193Z,2.22
2019-03-29T02:14:45.047Z,2.26
2019-03-29T02:15:44.175Z,2.34
2019-03-29T02:16:44.160Z,2.33
2019-03-29T02:17:44.157Z,2.41
2019-03-29T02:18:44.179Z,2.43
2019-03-29T02:19:58.023Z,2.39
2019-03-29T02:20:44.116Z,2.43
2019-03-29T02:21:44.106Z,2.50
2019-03-29T02:22:44.099Z,2.57
2019-03-29T02:23:44.085Z,2.47
2019-03-29T02:24:44.265Z,2.46
2019-03-29T02:25:44.065Z,2.40
2019-03-29T02:26:44.046Z,2.43
2019-03-29T02:27:44.034Z,2.36
2019-03-29T02:28:44.228Z,2.39
2019-03-29T02:29:44.013Z,2.34
2019-03-29T02:30:44.022Z,2.37
2019-03-29T02:31:44.080Z,2.40
2019-03-29T02:32:43.985Z,2.37
2019-03-29T02:33:44.014Z,2.33
2019-03-29T02:34:44.249Z,2.36
2019-03-29T02:35:43.961Z,2.34
2019-03-29T02:36:43.950Z,2.39
2019-03-29T02:37:43.938Z,2.39
2019-03-29T02:38:55.029Z,2.43
2019-03-29T02:39:44.924Z,2.41
2019-03-29T02:40:43.898Z,2.50
2019-03-29T02:41:43.892Z,2.37
2019-03-29T02:42:43.881Z,2.52
2019-03-29T02:43:43.880Z,2.51
2019-03-29T02:44:43.899Z,2.50
2019-03-29T02:45:43.846Z,2.55
2019-03-29T02:46:43.830Z,2.64
2019-03-29T02:47:43.825Z,2.55
2019-03-29T02:48:44.710Z,2.57
2019-03-29T02:49:43.810Z,2.57
2019-03-29T02:50:56.078Z,2.69
2019-03-29T02:51:43.771Z,2.75
2019-03-29T02:52:43.761Z,2.70
2019-03-29T02:53:43.757Z,2.76
2019-03-29T02:54:43.793Z,2.80
2019-03-29T02:55:43.770Z,2.79
2019-03-29T02:56:43.719Z,2.97
2019-03-29T02:57:43.709Z,2.97
2019-03-29T02:58:43.701Z,2.97
2019-03-29T02:59:43.695Z,3.00
2019-03-29T03:00:43.674Z,3.09
2019-03-29T03:01:43.702Z,3.15
2019-03-29T03:02:43.658Z,3.31
2019-03-29T03:03:43.655Z,3.21
2019-03-29T03:04:43.638Z,3.30
2019-03-29T03:05:43.622Z,3.24
2019-03-29T03:06:43.619Z,3.40
2019-03-29T03:07:43.620Z,3.37
2019-03-29T03:08:43.601Z,3.40
2019-03-29T03:09:43.620Z,3.37
2019-03-29T03:10:43.566Z,3.43
2019-03-29T03:11:43.560Z,3.45
2019-03-29T03:12:43.575Z,3.43
2019-03-29T03:13:43.548Z,3.43
2019-03-29T03:14:43.527Z,3.43
2019-03-29T03:15:43.513Z,3.46
2019-03-29T03:16:43.514Z,3.45
2019-03-29T03:17:43.493Z,3.46
2019-03-29T03:18:43.543Z,3.46
2019-03-29T03:19:43.482Z,3.52
2019-03-29T03:20:43.469Z,3.46
2019-03-29T03:21:56.180Z,3.48
2019-03-29T03:22:43.439Z,3.41
2019-03-29T03:23:43.429Z,3.29
2019-03-29T03:24:43.441Z,3.30
2019-03-29T03:25:43.431Z,3.30
2019-03-29T03:26:43.410Z,3.36
2019-03-29T03:27:43.402Z,3.41
2019-03-29T03:28:43.411Z,3.34
2019-03-29T03:29:47.596Z,3.29
2019-03-29T03:30:43.402Z,3.21
2019-03-29T03:31:43.350Z,3.19
2019-03-29T03:32:43.338Z,3.22
2019-03-29T03:33:43.336Z,3.13
2019-03-29T03:34:43.331Z,3.21
2019-03-29T03:35:43.480Z,3.16
2019-03-29T03:36:43.292Z,3.09
2019-03-29T03:37:43.285Z,3.08
2019-03-29T03:38:43.285Z,2.98
2019-03-29T03:39:43.268Z,2.97
2019-03-29T03:40:43.261Z,3.03
2019-03-29T03:41:43.291Z,2.94
2019-03-29T03:42:43.242Z,2.93
2019-03-29T03:43:43.219Z,2.90
2019-03-29T03:44:43.215Z,2.82
2019-03-29T03:45:43.201Z,2.85
2019-03-29T03:46:43.202Z,2.80
2019-03-29T03:47:43.194Z,2.79
2019-03-29T03:48:43.168Z,2.77
2019-03-29T03:49:43.160Z,2.77
2019-03-29T03:50:43.149Z,2.72
2019-03-29T03:51:43.143Z,2.64
2019-03-29T03:52:55.154Z,2.59
2019-03-29T03:53:43.128Z,2.62
2019-03-29T03:54:43.104Z,2.64
2019-03-29T03:55:43.099Z,2.65
2019-03-29T03:56:43.083Z,2.62
2019-03-29T03:57:43.081Z,2.62
2019-03-29T03:58:43.116Z,2.57
2019-03-29T03:59:43.069Z,2.64
2019-03-29T04:00:43.050Z,2.70
2019-03-29T04:01:43.047Z,2.62
2019-03-29T04:02:43.025Z,2.69
2019-03-29T04:03:43.015Z,2.58
2019-03-29T04:04:43.014Z,2.65
2019-03-29T04:05:42.994Z,2.62
2019-03-29T04:06:42.978Z,2.62
2019-03-29T04:07:42.967Z,2.68
2019-03-29T04:08:43.135Z,2.69
2019-03-29T04:09:49.849Z,2.69
2019-03-29T04:10:43.933Z,2.73
2019-03-29T04:11:42.925Z,2.80
2019-03-29T04:12:42.916Z,2.77
2019-03-29T04:13:42.913Z,2.80
2019-03-29T04:14:42.945Z,2.79
2019-03-29T04:15:42.887Z,2.76
2019-03-29T04:16:42.879Z,2.80
2019-03-29T04:17:42.863Z,2.73
2019-03-29T04:18:42.850Z,2.93
2019-03-29T04:19:42.842Z,2.94
2019-03-29T04:20:42.873Z,2.87
2019-03-29T04:21:42.819Z,2.94
2019-03-29T04:22:42.809Z,2.93
2019-03-29T04:23:55.330Z,2.95
2019-03-29T04:24:42.787Z,2.98
2019-03-29T04:25:42.782Z,3.09
2019-03-29T04:26:42.773Z,3.05
2019-03-29T04:27:42.767Z,3.13
2019-03-29T04:28:42.753Z,3.16
2019-03-29T04:29:42.737Z,3.16
2019-03-29T04:30:42.735Z,3.21
2019-03-29T04:31:42.886Z,3.16
2019-03-29T04:32:42.707Z,3.29
2019-03-29T04:33:42.708Z,3.27
2019-03-29T04:34:42.684Z,3.31
2019-03-29T04:35:42.773Z,3.41
2019-03-29T04:36:42.668Z,3.53
2019-03-29T04:37:42.678Z,3.59
2019-03-29T04:38:42.643Z,3.56
2019-03-29T04:39:42.641Z,3.58
2019-03-29T04:40:42.624Z,3.64
2019-03-29T04:41:42.620Z,3.73
2019-03-29T04:42:42.610Z,3.74
2019-03-29T04:43:42.595Z,3.82
2019-03-29T04:44:42.578Z,3.95
2019-03-29T04:45:42.573Z,3.84
2019-03-29T04:46:42.561Z,3.96
2019-03-29T04:47:42.591Z,3.99
2019-03-29T04:48:42.531Z,4.00
2019-03-29T04:49:42.524Z,4.07
2019-03-29T04:50:42.520Z,4.09
2019-03-29T04:51:42.504Z,4.13
2019-03-29T04:52:42.483Z,4.28
2019-03-29T04:53:42.501Z,4.30
2019-03-29T04:54:55.317Z,4.45
2019-03-29T04:55:42.449Z,4.45
2019-03-29T04:56:42.444Z,4.60
2019-03-29T04:57:42.439Z,4.86
2019-03-29T04:58:42.459Z,4.95
2019-03-29T04:59:42.406Z,5.23
2019-03-29T05:00:42.394Z,5.64
2019-03-29T05:01:42.386Z,6.22
2019-03-29T05:02:42.383Z,6.28
2019-03-29T05:03:42.377Z,6.35
2019-03-29T05:04:42.362Z,6.46
2019-03-29T05:05:42.355Z,6.15
2019-03-29T05:06:42.338Z,5.81
2019-03-29T05:07:42.408Z,5.77
2019-03-29T05:08:42.311Z,5.76
2019-03-29T05:09:42.302Z,5.72
2019-03-29T05:10:42.372Z,5.84
2019-03-29T05:11:42.298Z,5.67
2019-03-29T05:12:42.277Z,5.73
2019-03-29T05:13:42.253Z,5.70
2019-03-29T05:14:42.241Z,5.65
2019-03-29T05:15:42.235Z,5.49
2019-03-29T05:16:42.307Z,5.62
2019-03-29T05:17:42.210Z,5.76
2019-03-29T05:18:42.209Z,6.09
2019-03-29T05:19:44.555Z,6.25
2019-03-29T05:20:42.181Z,6.60
2019-03-29T05:21:42.210Z,6.62
2019-03-29T05:22:42.162Z,6.59
2019-03-29T05:23:42.173Z,6.60
2019-03-29T05:24:42.134Z,6.60
2019-03-29T05:25:54.419Z,6.39
2019-03-29T05:26:42.111Z,6.25
2019-03-29T05:27:42.108Z,6.06
2019-03-29T05:28:42.095Z,5.84
2019-03-29T05:29:42.079Z,5.88
2019-03-29T05:30:42.072Z,5.76
2019-03-29T05:31:42.053Z,5.74
2019-03-29T05:32:42.067Z,5.61
2019-03-29T05:33:42.034Z,5.51
2019-03-29T05:34:42.020Z,5.47
2019-03-29T05:35:42.016Z,5.49
2019-03-29T05:36:42.000Z,5.43
2019-03-29T05:37:41.991Z,5.46
2019-03-29T05:38:42.162Z,5.46
2019-03-29T05:39:41.972Z,5.46
2019-03-29T05:40:41.953Z,5.46
2019-03-29T05:41:41.951Z,5.47
2019-03-29T05:42:41.941Z,5.49
2019-03-29T05:43:41.949Z,5.56
2019-03-29T05:44:41.970Z,5.52
2019-03-29T05:45:41.908Z,5.54
2019-03-29T05:46:41.912Z,5.51
2019-03-29T05:47:41.881Z,5.55
2019-03-29T05:48:41.871Z,5.51
2019-03-29T05:49:41.895Z,5.52
2019-03-29T05:50:41.854Z,5.47
2019-03-29T05:51:41.836Z,5.59
2019-03-29T05:52:41.819Z,5.61
